sensor_id;sensor_type;location;lat;lon;timestamp;pressure;altitude;pressure_sealevel;temperature;humidity
27144;BME280;14672;50.250;8.312;2023-12-14T00:00:46;97788.13;;;6.68;69.92
27144;BME280;14672;50.250;8.312;2023-12-14T00:03:11;97795.28;;;6.82;68.95
27144;BME280;14672;50.250;8.312;2023-12-14T00:05:37;97798.94;;;6.70;67.99
27144;BME280;14672;50.250;8.312;2023-12-14T00:08:03;97791.41;;;6.67;68.85
27144;BME280;14672;50.250;8.312;2023-12-14T00:10:29;97794.09;;;6.48;68.71
27144;BME280;14672;50.250;8.312;2023-12-14T00:12:54;97796.97;;;6.57;69.20
27144;BME280;14672;50.250;8.312;2023-12-14T00:15:21;97813.25;;;6.53;69.08
27144;BME280;14672;50.250;8.312;2023-12-14T00:17:47;97814.50;;;6.52;69.73
27144;BME280;14672;50.250;8.312;2023-12-14T00:20:15;97818.88;;;6.53;69.29
27144;BME280;14672;50.250;8.312;2023-12-14T00:22:41;97819.81;;;6.50;69.48
27144;BME280;14672;50.250;8.312;2023-12-14T00:25:07;97826.03;;;6.45;69.61
27144;BME280;14672;50.250;8.312;2023-12-14T00:27:32;97838.34;;;6.39;69.90
27144;BME280;14672;50.250;8.312;2023-12-14T00:29:58;97837.19;;;6.49;70.46
27144;BME280;14672;50.250;8.312;2023-12-14T00:32:24;97834.56;;;6.54;70.96
27144;BME280;14672;50.250;8.312;2023-12-14T00:34:49;97838.50;;;6.57;70.61
27144;BME280;14672;50.250;8.312;2023-12-14T00:37:15;97836.81;;;6.59;70.64
27144;BME280;14672;50.250;8.312;2023-12-14T00:39:41;97839.91;;;6.52;70.88
27144;BME280;14672;50.250;8.312;2023-12-14T00:42:07;97844.41;;;6.50;70.32
27144;BME280;14672;50.250;8.312;2023-12-14T00:44:35;97849.13;;;6.53;70.29
27144;BME280;14672;50.250;8.312;2023-12-14T00:47:01;97849.69;;;6.60;70.35
27144;BME280;14672;50.250;8.312;2023-12-14T00:49:28;97862.19;;;6.72;70.12
27144;BME280;14672;50.250;8.312;2023-12-14T00:51:54;97855.41;;;6.70;70.80
27144;BME280;14672;50.250;8.312;2023-12-14T00:54:19;97876.28;;;6.72;70.68
27144;BME280;14672;50.250;8.312;2023-12-14T00:56:45;97878.63;;;6.74;71.23
27144;BME280;14672;50.250;8.312;2023-12-14T00:59:11;97890.41;;;6.72;71.16
27144;BME280;14672;50.250;8.312;2023-12-14T01:01:36;97894.00;;;6.73;71.11
27144;BME280;14672;50.250;8.312;2023-12-14T01:04:02;97894.09;;;6.69;71.34
27144;BME280;14672;50.250;8.312;2023-12-14T01:06:30;97901.69;;;6.72;71.12
27144;BME280;14672;50.250;8.312;2023-12-14T01:08:55;97915.41;;;6.83;71.33
27144;BME280;14672;50.250;8.312;2023-12-14T01:11:21;97912.91;;;6.85;71.28
27144;BME280;14672;50.250;8.312;2023-12-14T01:13:47;97920.47;;;6.88;71.22
27144;BME280;14672;50.250;8.312;2023-12-14T01:16:12;97926.84;;;7.01;71.12
27144;BME280;14672;50.250;8.312;2023-12-14T01:18:39;97929.34;;;6.99;71.10
27144;BME280;14672;50.250;8.312;2023-12-14T01:21:04;97933.06;;;7.08;71.37
27144;BME280;14672;50.250;8.312;2023-12-14T01:23:30;97937.25;;;7.04;71.70
27144;BME280;14672;50.250;8.312;2023-12-14T01:25:56;97938.69;;;7.08;71.11
27144;BME280;14672;50.250;8.312;2023-12-14T01:28:21;97942.28;;;7.09;71.63
27144;BME280;14672;50.250;8.312;2023-12-14T01:30:47;97946.69;;;7.10;71.55
27144;BME280;14672;50.250;8.312;2023-12-14T01:33:13;97951.44;;;7.13;71.62
27144;BME280;14672;50.250;8.312;2023-12-14T01:35:38;97962.59;;;7.17;71.06
27144;BME280;14672;50.250;8.312;2023-12-14T01:38:04;97957.50;;;7.24;70.54
27144;BME280;14672;50.250;8.312;2023-12-14T01:40:30;97966.63;;;7.28;71.02
27144;BME280;14672;50.250;8.312;2023-12-14T01:43:09;97970.97;;;7.20;71.67
27144;BME280;14672;50.250;8.312;2023-12-14T01:45:37;97969.81;;;7.18;71.95
27144;BME280;14672;50.250;8.312;2023-12-14T01:48:04;97978.16;;;7.21;71.85
27144;BME280;14672;50.250;8.312;2023-12-14T01:50:30;97978.25;;;7.30;71.99
27144;BME280;14672;50.250;8.312;2023-12-14T01:52:55;97979.84;;;7.31;72.27
27144;BME280;14672;50.250;8.312;2023-12-14T01:55:21;97977.97;;;7.37;71.57
27144;BME280;14672;50.250;8.312;2023-12-14T01:57:47;97983.97;;;7.39;72.02
27144;BME280;14672;50.250;8.312;2023-12-14T02:02:52;97981.16;;;7.39;72.02
27144;BME280;14672;50.250;8.312;2023-12-14T02:05:17;97989.94;;;7.41;72.52
27144;BME280;14672;50.250;8.312;2023-12-14T02:07:43;97993.44;;;7.45;72.14
27144;BME280;14672;50.250;8.312;2023-12-14T02:10:09;97998.09;;;7.39;72.06
27144;BME280;14672;50.250;8.312;2023-12-14T02:12:34;98011.41;;;7.51;72.42
27144;BME280;14672;50.250;8.312;2023-12-14T02:15:00;98005.75;;;7.51;72.38
27144;BME280;14672;50.250;8.312;2023-12-14T02:17:26;98012.38;;;7.57;72.09
27144;BME280;14672;50.250;8.312;2023-12-14T02:19:52;98005.47;;;7.59;72.14
27144;BME280;14672;50.250;8.312;2023-12-14T02:22:17;98012.75;;;7.69;71.79
27144;BME280;14672;50.250;8.312;2023-12-14T02:24:43;98015.84;;;7.62;72.36
27144;BME280;14672;50.250;8.312;2023-12-14T02:27:09;98023.75;;;7.67;72.19
27144;BME280;14672;50.250;8.312;2023-12-14T02:29:34;98017.44;;;7.63;72.22
27144;BME280;14672;50.250;8.312;2023-12-14T02:32:00;98026.88;;;7.69;72.33
27144;BME280;14672;50.250;8.312;2023-12-14T02:34:26;98014.81;;;7.68;72.55
27144;BME280;14672;50.250;8.312;2023-12-14T02:36:52;98019.69;;;7.68;72.28
27144;BME280;14672;50.250;8.312;2023-12-14T02:39:18;98021.44;;;7.74;72.73
27144;BME280;14672;50.250;8.312;2023-12-14T02:41:43;98031.31;;;7.70;72.47
27144;BME280;14672;50.250;8.312;2023-12-14T02:44:09;98034.50;;;7.81;72.46
27144;BME280;14672;50.250;8.312;2023-12-14T02:46:35;98037.69;;;7.83;72.22
27144;BME280;14672;50.250;8.312;2023-12-14T02:49:01;98031.31;;;7.91;72.47
27144;BME280;14672;50.250;8.312;2023-12-14T02:51:26;98039.94;;;7.88;72.31
27144;BME280;14672;50.250;8.312;2023-12-14T02:53:52;98037.41;;;7.90;72.87
27144;BME280;14672;50.250;8.312;2023-12-14T02:56:18;98038.06;;;7.94;72.56
27144;BME280;14672;50.250;8.312;2023-12-14T02:58:43;98036.34;;;7.96;72.61
27144;BME280;14672;50.250;8.312;2023-12-14T03:01:09;98039.06;;;8.00;72.64
27144;BME280;14672;50.250;8.312;2023-12-14T03:03:39;98034.97;;;8.01;72.90
27144;BME280;14672;50.250;8.312;2023-12-14T03:06:05;98039.81;;;8.00;72.62
27144;BME280;14672;50.250;8.312;2023-12-14T03:08:31;98048.66;;;8.02;72.33
27144;BME280;14672;50.250;8.312;2023-12-14T03:10:56;98048.19;;;8.04;72.64
27144;BME280;14672;50.250;8.312;2023-12-14T03:13:22;98050.75;;;8.11;72.89
27144;BME280;14672;50.250;8.312;2023-12-14T03:15:48;98057.66;;;8.10;72.58
27144;BME280;14672;50.250;8.312;2023-12-14T03:18:14;98059.09;;;8.15;72.43
27144;BME280;14672;50.250;8.312;2023-12-14T03:20:40;98067.00;;;8.20;72.75
27144;BME280;14672;50.250;8.312;2023-12-14T03:23:06;98072.66;;;8.20;72.67
27144;BME280;14672;50.250;8.312;2023-12-14T03:25:31;98073.25;;;8.15;72.46
27144;BME280;14672;50.250;8.312;2023-12-14T03:27:57;98069.94;;;8.16;72.68
27144;BME280;14672;50.250;8.312;2023-12-14T03:30:23;98072.97;;;8.22;72.85
27144;BME280;14672;50.250;8.312;2023-12-14T03:32:48;98081.81;;;8.24;72.59
27144;BME280;14672;50.250;8.312;2023-12-14T03:35:14;98082.44;;;8.28;72.57
27144;BME280;14672;50.250;8.312;2023-12-14T03:37:40;98095.81;;;8.27;72.60
27144;BME280;14672;50.250;8.312;2023-12-14T03:40:06;98100.19;;;8.28;72.78
27144;BME280;14672;50.250;8.312;2023-12-14T03:42:32;98107.81;;;8.31;72.76
27144;BME280;14672;50.250;8.312;2023-12-14T03:44:58;98111.19;;;8.26;73.03
27144;BME280;14672;50.250;8.312;2023-12-14T03:47:24;98113.78;;;8.33;72.88
27144;BME280;14672;50.250;8.312;2023-12-14T03:49:49;98117.28;;;8.37;72.97
27144;BME280;14672;50.250;8.312;2023-12-14T03:52:15;98126.56;;;8.38;73.49
27144;BME280;14672;50.250;8.312;2023-12-14T03:54:41;98127.00;;;8.36;73.36
27144;BME280;14672;50.250;8.312;2023-12-14T03:57:07;98116.03;;;8.38;73.28
27144;BME280;14672;50.250;8.312;2023-12-14T03:59:32;98120.94;;;8.47;73.64
27144;BME280;14672;50.250;8.312;2023-12-14T04:01:59;98130.41;;;8.53;73.08
27144;BME280;14672;50.250;8.312;2023-12-14T04:04:25;98133.38;;;8.49;73.44
27144;BME280;14672;50.250;8.312;2023-12-14T04:06:51;98141.72;;;8.53;73.58
27144;BME280;14672;50.250;8.312;2023-12-14T04:09:29;98137.66;;;8.54;72.98
27144;BME280;14672;50.250;8.312;2023-12-14T04:11:57;98144.91;;;8.55;73.10
27144;BME280;14672;50.250;8.312;2023-12-14T04:14:23;98144.56;;;8.53;73.38
27144;BME280;14672;50.250;8.312;2023-12-14T04:16:49;98139.09;;;8.59;73.30
27144;BME280;14672;50.250;8.312;2023-12-14T04:19:15;98145.69;;;8.56;73.82
27144;BME280;14672;50.250;8.312;2023-12-14T04:21:40;98151.22;;;8.59;73.68
27144;BME280;14672;50.250;8.312;2023-12-14T04:24:07;98146.22;;;8.63;73.76
27144;BME280;14672;50.250;8.312;2023-12-14T04:26:34;98150.00;;;8.69;72.95
27144;BME280;14672;50.250;8.312;2023-12-14T04:29:00;98161.47;;;8.66;73.78
27144;BME280;14672;50.250;8.312;2023-12-14T04:31:26;98161.84;;;8.77;73.13
27144;BME280;14672;50.250;8.312;2023-12-14T04:33:51;98162.63;;;8.77;72.92
27144;BME280;14672;50.250;8.312;2023-12-14T04:36:17;98177.59;;;8.78;72.92
27144;BME280;14672;50.250;8.312;2023-12-14T04:38:43;98179.63;;;8.77;73.29
27144;BME280;14672;50.250;8.312;2023-12-14T04:41:12;98180.88;;;8.76;73.60
27144;BME280;14672;50.250;8.312;2023-12-14T04:43:38;98178.53;;;8.84;73.26
27144;BME280;14672;50.250;8.312;2023-12-14T04:46:04;98181.38;;;8.84;73.42
27144;BME280;14672;50.250;8.312;2023-12-14T04:48:31;98188.19;;;8.86;73.55
27144;BME280;14672;50.250;8.312;2023-12-14T04:50:57;98189.88;;;8.84;73.97
27144;BME280;14672;50.250;8.312;2023-12-14T04:53:23;98190.22;;;8.86;73.38
27144;BME280;14672;50.250;8.312;2023-12-14T04:55:49;98202.13;;;8.81;73.09
27144;BME280;14672;50.250;8.312;2023-12-14T04:58:14;98195.75;;;8.89;73.43
27144;BME280;14672;50.250;8.312;2023-12-14T05:00:40;98195.44;;;8.87;72.96
27144;BME280;14672;50.250;8.312;2023-12-14T05:03:06;98201.84;;;8.88;73.55
27144;BME280;14672;50.250;8.312;2023-12-14T05:05:32;98209.69;;;8.84;73.31
27144;BME280;14672;50.250;8.312;2023-12-14T05:07:58;98206.63;;;8.91;73.92
27144;BME280;14672;50.250;8.312;2023-12-14T05:10:23;98212.28;;;8.91;73.52
27144;BME280;14672;50.250;8.312;2023-12-14T05:12:49;98213.72;;;8.95;73.69
27144;BME280;14672;50.250;8.312;2023-12-14T05:15:15;98223.00;;;8.96;73.84
27144;BME280;14672;50.250;8.312;2023-12-14T05:17:40;98223.34;;;8.98;73.79
27144;BME280;14672;50.250;8.312;2023-12-14T05:20:10;98234.97;;;9.00;73.49
27144;BME280;14672;50.250;8.312;2023-12-14T05:22:36;98237.03;;;9.00;73.83
27144;BME280;14672;50.250;8.312;2023-12-14T05:25:02;98240.03;;;9.05;73.78
27144;BME280;14672;50.250;8.312;2023-12-14T05:27:27;98245.41;;;9.03;74.05
27144;BME280;14672;50.250;8.312;2023-12-14T05:29:53;98246.66;;;9.02;74.00
27144;BME280;14672;50.250;8.312;2023-12-14T05:32:19;98250.94;;;9.07;73.74
27144;BME280;14672;50.250;8.312;2023-12-14T05:34:45;98254.22;;;9.05;73.89
27144;BME280;14672;50.250;8.312;2023-12-14T05:37:10;98266.72;;;9.17;73.98
27144;BME280;14672;50.250;8.312;2023-12-14T05:39:36;98272.97;;;9.12;73.86
27144;BME280;14672;50.250;8.312;2023-12-14T05:42:03;98269.69;;;9.13;73.59
27144;BME280;14672;50.250;8.312;2023-12-14T05:44:28;98277.88;;;9.11;73.92
27144;BME280;14672;50.250;8.312;2023-12-14T05:46:54;98283.25;;;9.18;73.76
27144;BME280;14672;50.250;8.312;2023-12-14T05:49:20;98287.13;;;9.12;73.92
27144;BME280;14672;50.250;8.312;2023-12-14T05:51:45;98290.63;;;9.16;74.25
27144;BME280;14672;50.250;8.312;2023-12-14T05:54:11;98289.84;;;9.15;73.62
27144;BME280;14672;50.250;8.312;2023-12-14T05:56:37;98299.91;;;9.16;73.59
27144;BME280;14672;50.250;8.312;2023-12-14T05:59:03;98300.13;;;9.22;73.58
27144;BME280;14672;50.250;8.312;2023-12-14T06:01:28;98311.91;;;9.20;74.05
27144;BME280;14672;50.250;8.312;2023-12-14T06:03:54;98303.91;;;9.28;73.91
27144;BME280;14672;50.250;8.312;2023-12-14T06:06:23;98311.19;;;9.29;73.80
27144;BME280;14672;50.250;8.312;2023-12-14T06:08:52;98317.63;;;9.29;73.45
27144;BME280;14672;50.250;8.312;2023-12-14T06:11:18;98321.72;;;9.28;73.69
27144;BME280;14672;50.250;8.312;2023-12-14T06:13:45;98320.47;;;9.29;73.83
27144;BME280;14672;50.250;8.312;2023-12-14T06:16:11;98332.91;;;9.32;73.50
27144;BME280;14672;50.250;8.312;2023-12-14T06:18:39;98333.84;;;9.29;74.14
27144;BME280;14672;50.250;8.312;2023-12-14T06:21:07;98332.16;;;9.31;73.58
27144;BME280;14672;50.250;8.312;2023-12-14T06:23:35;98330.88;;;9.32;73.77
27144;BME280;14672;50.250;8.312;2023-12-14T06:26:03;98341.31;;;9.35;73.69
27144;BME280;14672;50.250;8.312;2023-12-14T06:28:32;98352.66;;;9.35;74.20
27144;BME280;14672;50.250;8.312;2023-12-14T06:30:58;98354.69;;;9.35;74.69
27144;BME280;14672;50.250;8.312;2023-12-14T06:33:24;98365.41;;;9.40;74.16
27144;BME280;14672;50.250;8.312;2023-12-14T06:35:49;98366.16;;;9.31;74.13
27144;BME280;14672;50.250;8.312;2023-12-14T06:38:15;98362.72;;;9.36;74.07
27144;BME280;14672;50.250;8.312;2023-12-14T06:40:42;98369.38;;;9.42;74.16
27144;BME280;14672;50.250;8.312;2023-12-14T06:43:08;98366.69;;;9.39;74.00
27144;BME280;14672;50.250;8.312;2023-12-14T06:45:37;98365.69;;;9.33;74.87
27144;BME280;14672;50.250;8.312;2023-12-14T06:48:03;98371.56;;;9.38;74.32
27144;BME280;14672;50.250;8.312;2023-12-14T06:50:29;98372.34;;;9.39;74.82
27144;BME280;14672;50.250;8.312;2023-12-14T06:52:54;98384.00;;;9.41;74.55
27144;BME280;14672;50.250;8.312;2023-12-14T06:55:20;98382.63;;;9.46;74.62
27144;BME280;14672;50.250;8.312;2023-12-14T06:57:46;98393.63;;;9.43;74.51
27144;BME280;14672;50.250;8.312;2023-12-14T07:00:13;98403.13;;;9.50;74.48
27144;BME280;14672;50.250;8.312;2023-12-14T07:02:39;98406.88;;;9.47;74.16
27144;BME280;14672;50.250;8.312;2023-12-14T07:05:05;98402.53;;;9.55;74.31
27144;BME280;14672;50.250;8.312;2023-12-14T07:07:31;98407.06;;;9.52;74.37
27144;BME280;14672;50.250;8.312;2023-12-14T07:09:57;98409.66;;;9.59;73.92
27144;BME280;14672;50.250;8.312;2023-12-14T07:12:22;98412.28;;;9.54;74.09
27144;BME280;14672;50.250;8.312;2023-12-14T07:14:48;98424.41;;;9.54;74.46
27144;BME280;14672;50.250;8.312;2023-12-14T07:17:14;98427.91;;;9.58;74.19
27144;BME280;14672;50.250;8.312;2023-12-14T07:19:40;98427.13;;;9.58;73.99
27144;BME280;14672;50.250;8.312;2023-12-14T07:22:05;98440.72;;;9.63;73.54
27144;BME280;14672;50.250;8.312;2023-12-14T07:24:32;98442.91;;;9.68;73.84
27144;BME280;14672;50.250;8.312;2023-12-14T07:26:58;98440.88;;;9.68;73.63
27144;BME280;14672;50.250;8.312;2023-12-14T07:29:23;98443.41;;;9.66;73.71
27144;BME280;14672;50.250;8.312;2023-12-14T07:31:49;98442.47;;;9.69;74.23
27144;BME280;14672;50.250;8.312;2023-12-14T07:34:15;98460.28;;;9.70;73.71
27144;BME280;14672;50.250;8.312;2023-12-14T07:36:40;98468.88;;;9.79;74.08
27144;BME280;14672;50.250;8.312;2023-12-14T07:39:06;98481.63;;;9.83;73.79
27144;BME280;14672;50.250;8.312;2023-12-14T07:41:34;98471.50;;;9.73;73.94
27144;BME280;14672;50.250;8.312;2023-12-14T07:44:01;98471.69;;;9.79;74.14
27144;BME280;14672;50.250;8.312;2023-12-14T07:46:26;98478.63;;;9.78;74.21
27144;BME280;14672;50.250;8.312;2023-12-14T07:48:52;98482.91;;;9.82;74.32
27144;BME280;14672;50.250;8.312;2023-12-14T07:51:18;98489.69;;;9.85;74.74
27144;BME280;14672;50.250;8.312;2023-12-14T07:53:44;98498.34;;;9.81;74.14
27144;BME280;14672;50.250;8.312;2023-12-14T07:56:12;98493.47;;;9.82;74.06
27144;BME280;14672;50.250;8.312;2023-12-14T07:58:38;98504.31;;;9.83;73.79
27144;BME280;14672;50.250;8.312;2023-12-14T08:01:03;98512.44;;;9.94;74.16
27144;BME280;14672;50.250;8.312;2023-12-14T08:03:29;98508.03;;;9.93;74.01
27144;BME280;14672;50.250;8.312;2023-12-14T08:05:55;98514.63;;;9.90;73.98
27144;BME280;14672;50.250;8.312;2023-12-14T08:08:21;98516.53;;;9.93;74.79
27144;BME280;14672;50.250;8.312;2023-12-14T08:10:47;98524.38;;;9.89;74.96
27144;BME280;14672;50.250;8.312;2023-12-14T08:13:12;98533.78;;;9.99;74.56
27144;BME280;14672;50.250;8.312;2023-12-14T08:15:38;98538.44;;;9.93;74.48
27144;BME280;14672;50.250;8.312;2023-12-14T08:18:04;98542.41;;;9.95;74.56
27144;BME280;14672;50.250;8.312;2023-12-14T08:20:33;98539.91;;;9.97;74.38
27144;BME280;14672;50.250;8.312;2023-12-14T08:22:58;98549.84;;;10.02;74.13
27144;BME280;14672;50.250;8.312;2023-12-14T08:25:33;98550.00;;;9.98;74.83
27144;BME280;14672;50.250;8.312;2023-12-14T08:28:02;98561.38;;;10.07;73.87
27144;BME280;14672;50.250;8.312;2023-12-14T08:30:28;98561.28;;;10.11;74.00
27144;BME280;14672;50.250;8.312;2023-12-14T08:32:53;98568.19;;;10.10;73.91
27144;BME280;14672;50.250;8.312;2023-12-14T08:35:19;98576.16;;;10.15;74.23
27144;BME280;14672;50.250;8.312;2023-12-14T08:37:45;98574.28;;;10.21;74.01
27144;BME280;14672;50.250;8.312;2023-12-14T08:40:11;98588.34;;;10.24;74.00
27144;BME280;14672;50.250;8.312;2023-12-14T08:42:37;98587.38;;;10.18;73.98
27144;BME280;14672;50.250;8.312;2023-12-14T08:45:03;98597.00;;;10.21;74.12
27144;BME280;14672;50.250;8.312;2023-12-14T08:47:29;98601.72;;;10.15;74.02
27144;BME280;14672;50.250;8.312;2023-12-14T08:49:54;98607.56;;;10.20;74.28
27144;BME280;14672;50.250;8.312;2023-12-14T08:52:20;98619.41;;;10.19;74.44
27144;BME280;14672;50.250;8.312;2023-12-14T08:54:46;98623.78;;;10.20;74.23
27144;BME280;14672;50.250;8.312;2023-12-14T08:57:12;98634.13;;;10.26;74.10
27144;BME280;14672;50.250;8.312;2023-12-14T08:59:37;98633.31;;;10.26;73.50
27144;BME280;14672;50.250;8.312;2023-12-14T09:02:04;98641.50;;;10.24;72.99
27144;BME280;14672;50.250;8.312;2023-12-14T09:04:30;98643.09;;;10.25;73.20
27144;BME280;14672;50.250;8.312;2023-12-14T09:06:56;98653.72;;;10.33;73.39
27144;BME280;14672;50.250;8.312;2023-12-14T09:09:21;98661.00;;;10.34;72.96
27144;BME280;14672;50.250;8.312;2023-12-14T09:11:47;98664.06;;;10.27;72.89
27144;BME280;14672;50.250;8.312;2023-12-14T09:14:13;98663.34;;;10.36;72.42
27144;BME280;14672;50.250;8.312;2023-12-14T09:16:38;98672.47;;;10.31;72.58
27144;BME280;14672;50.250;8.312;2023-12-14T09:19:04;98674.25;;;10.38;72.67
27144;BME280;14672;50.250;8.312;2023-12-14T09:21:30;98682.03;;;10.24;73.16
27144;BME280;14672;50.250;8.312;2023-12-14T09:23:56;98684.03;;;10.36;72.35
27144;BME280;14672;50.250;8.312;2023-12-14T09:26:22;98691.44;;;10.34;72.98
27144;BME280;14672;50.250;8.312;2023-12-14T09:28:47;98703.56;;;10.34;72.86
27144;BME280;14672;50.250;8.312;2023-12-14T09:31:13;98715.91;;;10.41;72.96
27144;BME280;14672;50.250;8.312;2023-12-14T09:33:39;98712.16;;;10.44;72.99
27144;BME280;14672;50.250;8.312;2023-12-14T09:36:05;98720.34;;;10.42;72.61
27144;BME280;14672;50.250;8.312;2023-12-14T09:38:31;98721.94;;;10.43;73.03
27144;BME280;14672;50.250;8.312;2023-12-14T09:40:56;98730.66;;;10.48;72.33
27144;BME280;14672;50.250;8.312;2023-12-14T09:43:22;98733.31;;;10.43;72.75
27144;BME280;14672;50.250;8.312;2023-12-14T09:45:49;98735.28;;;10.55;72.45
27144;BME280;14672;50.250;8.312;2023-12-14T09:48:16;98746.22;;;10.44;72.39
27144;BME280;14672;50.250;8.312;2023-12-14T09:50:42;98742.66;;;10.52;72.69
27144;BME280;14672;50.250;8.312;2023-12-14T09:53:09;98744.06;;;10.48;72.57
27144;BME280;14672;50.250;8.312;2023-12-14T09:55:34;98759.63;;;10.43;72.54
27144;BME280;14672;50.250;8.312;2023-12-14T09:58:00;98759.06;;;10.48;72.45
27144;BME280;14672;50.250;8.312;2023-12-14T10:00:37;98768.72;;;10.51;72.77
27144;BME280;14672;50.250;8.312;2023-12-14T10:03:25;98765.78;;;10.42;72.79
27144;BME280;14672;50.250;8.312;2023-12-14T10:05:57;98769.28;;;10.46;72.26
27144;BME280;14672;50.250;8.312;2023-12-14T10:08:25;98764.06;;;10.44;72.63
27144;BME280;14672;50.250;8.312;2023-12-14T10:10:53;98772.41;;;10.39;72.01
27144;BME280;14672;50.250;8.312;2023-12-14T10:13:36;98774.41;;;10.51;72.67
27144;BME280;14672;50.250;8.312;2023-12-14T10:16:06;98777.00;;;10.45;71.99
27144;BME280;14672;50.250;8.312;2023-12-14T10:18:32;98769.63;;;10.48;72.04
27144;BME280;14672;50.250;8.312;2023-12-14T10:21:06;98765.38;;;10.52;71.68
27144;BME280;14672;50.250;8.312;2023-12-14T10:23:33;98775.16;;;10.51;71.77
27144;BME280;14672;50.250;8.312;2023-12-14T10:26:00;98775.16;;;10.51;71.82
27144;BME280;14672;50.250;8.312;2023-12-14T10:28:27;98773.59;;;10.50;72.54
27144;BME280;14672;50.250;8.312;2023-12-14T10:30:52;98788.38;;;10.45;72.42
27144;BME280;14672;50.250;8.312;2023-12-14T10:33:18;98784.03;;;10.53;72.44
27144;BME280;14672;50.250;8.312;2023-12-14T10:35:44;98786.91;;;10.41;72.19
27144;BME280;14672;50.250;8.312;2023-12-14T10:38:13;98791.09;;;10.49;72.33
27144;BME280;14672;50.250;8.312;2023-12-14T10:40:40;98792.19;;;10.51;72.38
27144;BME280;14672;50.250;8.312;2023-12-14T10:43:10;98796.50;;;10.56;72.27
27144;BME280;14672;50.250;8.312;2023-12-14T10:45:43;98787.09;;;10.59;72.25
27144;BME280;14672;50.250;8.312;2023-12-14T10:48:09;98793.88;;;10.61;72.16
27144;BME280;14672;50.250;8.312;2023-12-14T10:50:35;98794.19;;;10.63;71.48
27144;BME280;14672;50.250;8.312;2023-12-14T10:53:03;98808.88;;;10.62;71.59
27144;BME280;14672;50.250;8.312;2023-12-14T10:55:43;98808.22;;;10.58;72.23
27144;BME280;14672;50.250;8.312;2023-12-14T10:58:10;98815.34;;;10.62;71.46
27144;BME280;14672;50.250;8.312;2023-12-14T11:00:37;98819.84;;;10.51;72.07
27144;BME280;14672;50.250;8.312;2023-12-14T11:03:06;98817.66;;;10.55;72.04
27144;BME280;14672;50.250;8.312;2023-12-14T11:05:33;98826.72;;;10.62;71.38
27144;BME280;14672;50.250;8.312;2023-12-14T11:08:04;98825.00;;;10.65;71.25
27144;BME280;14672;50.250;8.312;2023-12-14T11:10:40;98840.16;;;10.49;71.97
27144;BME280;14672;50.250;8.312;2023-12-14T11:13:11;98838.22;;;10.59;70.96
27144;BME280;14672;50.250;8.312;2023-12-14T11:15:45;98837.31;;;10.49;71.45
27144;BME280;14672;50.250;8.312;2023-12-14T11:25:54;98853.00;;;10.54;70.65
27144;BME280;14672;50.250;8.312;2023-12-14T11:28:20;98866.00;;;10.64;70.64
27144;BME280;14672;50.250;8.312;2023-12-14T11:30:46;98862.38;;;10.63;70.80
27144;BME280;14672;50.250;8.312;2023-12-14T11:33:13;98872.50;;;10.64;70.22
27144;BME280;14672;50.250;8.312;2023-12-14T11:35:40;98875.69;;;10.66;70.50
27144;BME280;14672;50.250;8.312;2023-12-14T11:38:05;98886.84;;;10.61;70.43
27144;BME280;14672;50.250;8.312;2023-12-14T11:40:48;98875.22;;;10.68;70.20
27144;BME280;14672;50.250;8.312;2023-12-14T11:43:14;98876.97;;;10.53;70.16
27144;BME280;14672;50.250;8.312;2023-12-14T11:45:43;98883.75;;;10.55;70.04
27144;BME280;14672;50.250;8.312;2023-12-14T11:48:11;98882.88;;;10.58;70.27
27144;BME280;14672;50.250;8.312;2023-12-14T11:50:42;98887.75;;;10.58;69.82
27144;BME280;14672;50.250;8.312;2023-12-14T11:53:09;98892.09;;;10.50;69.44
27144;BME280;14672;50.250;8.312;2023-12-14T11:55:37;98893.97;;;10.65;69.61
27144;BME280;14672;50.250;8.312;2023-12-14T11:58:04;98897.28;;;10.64;70.02
27144;BME280;14672;50.250;8.312;2023-12-14T12:00:31;98899.44;;;10.60;70.71
27144;BME280;14672;50.250;8.312;2023-12-14T12:05:46;98899.31;;;10.63;70.02
27144;BME280;14672;50.250;8.312;2023-12-14T12:08:15;98892.25;;;10.68;70.15
27144;BME280;14672;50.250;8.312;2023-12-14T12:10:44;98892.50;;;10.61;70.48
27144;BME280;14672;50.250;8.312;2023-12-14T12:13:13;98904.66;;;10.61;69.62
27144;BME280;14672;50.250;8.312;2023-12-14T12:15:40;98899.91;;;10.58;69.39
27144;BME280;14672;50.250;8.312;2023-12-14T12:18:10;98899.44;;;10.60;69.91
27144;BME280;14672;50.250;8.312;2023-12-14T12:20:37;98902.53;;;10.53;70.09
27144;BME280;14672;50.250;8.312;2023-12-14T12:23:03;98900.03;;;10.55;70.00
27144;BME280;14672;50.250;8.312;2023-12-14T12:25:32;98897.94;;;10.68;70.32
27144;BME280;14672;50.250;8.312;2023-12-14T12:27:59;98908.50;;;10.67;70.54
27144;BME280;14672;50.250;8.312;2023-12-14T12:30:26;98911.03;;;10.65;70.02
27144;BME280;14672;50.250;8.312;2023-12-14T12:32:52;98904.66;;;10.61;69.64
27144;BME280;14672;50.250;8.312;2023-12-14T12:35:22;98916.97;;;10.58;69.32
27144;BME280;14672;50.250;8.312;2023-12-14T12:37:49;98910.81;;;10.60;70.30
27144;BME280;14672;50.250;8.312;2023-12-14T12:40:23;98910.22;;;10.65;70.31
27144;BME280;14672;50.250;8.312;2023-12-14T12:42:51;98915.13;;;10.64;70.13
27144;BME280;14672;50.250;8.312;2023-12-14T12:45:18;98917.94;;;10.64;69.53
27144;BME280;14672;50.250;8.312;2023-12-14T12:47:44;98923.31;;;10.62;69.98
27144;BME280;14672;50.250;8.312;2023-12-14T12:50:12;98925.81;;;10.60;70.20
27144;BME280;14672;50.250;8.312;2023-12-14T12:52:38;98918.78;;;10.52;69.71
27144;BME280;14672;50.250;8.312;2023-12-14T12:55:07;98922.97;;;10.60;70.19
27144;BME280;14672;50.250;8.312;2023-12-14T12:57:35;98930.00;;;10.56;69.60
27144;BME280;14672;50.250;8.312;2023-12-14T13:00:02;98921.84;;;10.58;69.26
27144;BME280;14672;50.250;8.312;2023-12-14T13:02:29;98924.88;;;10.63;69.67
27144;BME280;14672;50.250;8.312;2023-12-14T13:04:55;98925.81;;;10.60;69.75
27144;BME280;14672;50.250;8.312;2023-12-14T13:07:21;98922.16;;;10.60;69.29
27144;BME280;14672;50.250;8.312;2023-12-14T13:09:47;98916.03;;;10.61;69.08
27144;BME280;14672;50.250;8.312;2023-12-14T13:12:13;98924.78;;;10.67;68.72
27144;BME280;14672;50.250;8.312;2023-12-14T13:14:40;98918.31;;;10.66;68.45
27144;BME280;14672;50.250;8.312;2023-12-14T13:17:06;98929.44;;;10.61;68.45